Sedgwick Reserve, California Weather observations

Data are for 10 minute period ending at time listed.
 Day   Time   Solar   Ave.   Ave.  Ave.  Vector  Max.   Baro.   Total    
  of    of     Rad.   Air    Rel.  Wind   Wind   Wind  Press.  Precip.   
Year   Day            Temp.  Hum.  Speed  Dir.   Gust                    
2016   (PST)  Kw/m2    F      %     mph   deg.    mph    mb.     in.     
-------------------------------------------------------------------------
 178   21:50   0.00   69.1    40    2.9   290     6.4   971.0    0.00 
 178   22:00   0.00   69.0    39    3.9   314     8.0   970.9    0.00 
 178   22:10   0.00   70.6    38    2.5   321     5.6   970.9    0.00 
 178   22:20   0.00   70.8    38    3.6   270     6.2   970.8    0.00 
 178   22:30   0.00   71.3    37    1.8   307     5.0   970.8    0.00 
 178   22:40   0.00   70.0    39    2.4   343     5.5   970.8    0.00 
 178   22:50   0.00   70.1    39    3.6   262    10.2   970.7    0.00 
 178   23:00   0.00   70.3    38    3.2   343     7.9   970.8    0.00 
 178   23:10   0.00   69.2    40    2.3   234     4.7   970.7    0.00 
 178   23:20   0.00   69.4    40    4.5   345     9.6   970.5    0.00 
 178   23:30   0.00   69.7    40    3.4   247     9.3   970.5    0.00 
 178   23:40   0.00   70.4    39    4.9   252     8.9   970.5    0.00 
 178   23:50   0.00   71.1    38    4.0   237     7.2   970.4    0.00 
 179    0:00   0.00   70.3    39    4.5   252     9.0   970.3    0.00 
 179    0:10   0.00   70.0    39    2.2   140     5.1   970.3    0.00 
 179    0:20   0.00   68.7    42    4.1   133     6.9   970.4    0.00 
 179    0:30   0.00   67.3    45    3.9   148     8.9   970.4    0.00 
 179    0:40   0.00   66.8    47    3.1   150     6.4   970.3    0.00 
 179    0:50   0.00   66.2    49    3.7   207     8.6   970.2    0.00 
 179    1:00   0.00   65.9    49    2.7   356     8.8   970.2    0.00 
 179    1:10   0.00   66.3    49    1.9   349     5.3   970.2    0.00 
 179    1:20   0.00   65.8    49    2.6   347     8.3   970.2    0.00 
 179    1:30   0.00   65.4    50    1.9   192     4.7   970.2    0.00 
 179    1:40   0.00   65.8    49    3.1     3     7.4   970.2    0.00 
 179    1:50   0.00   65.2    50    1.3    43     4.8   970.2    0.00 
 179    2:00   0.00   64.8    51    1.0    72     3.6   970.2    0.00 
 179    2:10   0.00   63.6    53    1.9   297     3.1   970.2    0.00 
 179    2:20   0.00   63.0    53    1.9   121     5.3   970.2    0.00 
 179    2:30   0.00   62.2    55    2.5   104     5.3   970.3    0.00 
 179    2:40   0.00   63.5    53    2.1   286     4.8   970.5    0.00 
 179    2:50   0.00   63.3    54    3.1     0     6.7   970.6    0.00 
 179    3:00   0.00   62.5    54    3.8   351     7.4   970.6    0.00 
 179    3:10   0.00   62.2    54    2.1   346     4.5   970.5    0.00 
 179    3:20   0.00   62.0    54    1.2   296     3.3   970.5    0.00 
 179    3:30   0.00   61.8    55    1.5   289     3.1   970.6    0.00 
 179    3:40   0.00   61.2    55    2.8   315     5.6   970.6    0.00 
 179    3:50   0.00   60.8    56    2.2   321     4.6   970.6    0.00 
 179    4:00   0.00   61.3    55    2.1   349     6.6   970.6    0.00 
 179    4:10   0.00   60.7    56    1.6   328     3.1   970.7    0.00 
 179    4:20   0.00   60.8    55    1.3   334     4.0   970.7    0.00 
 179    4:30   0.00   60.5    55    2.9   332     7.2   970.7    0.00 
 179    4:40   0.00   60.7    55    1.1   300     4.5   970.8    0.00 
 179    4:50   0.00   61.2    54    2.0   284     6.0   970.7    0.00 
 179    5:00   0.00   61.2    53    1.3   351     7.2   970.8    0.00 
 179    5:10   0.01   60.9    54    2.2   328     5.6   970.9    0.00 
 179    5:20   0.01   60.4    54    2.5   343     6.6   970.9    0.00 
 179    5:30   0.02   60.8    53    2.8   279     4.7   970.9    0.00 
 179    5:40   0.03   62.1    51    1.5   333     4.7   970.9    0.00 
 179    5:50   0.03   63.2    50    1.7   351     4.2   970.9    0.00 
 179    6:00   0.11   64.5    48    0.8    30     2.7   970.9    0.00 
 179    6:10   0.16   65.2    46    0.6   341     2.3   971.0    0.00 
 179    6:20   0.19   67.5    44    0.7   218     2.1   971.1    0.00 
 179    6:30   0.22   70.7    40    1.0   226     4.4   971.2    0.00 
 179    6:40   0.25   73.2    37    1.4   110     2.9   971.5    0.00 
 179    6:50   0.29   75.2    34    1.3    85     2.3   971.6    0.00 
 179    7:00   0.32   76.4    33    1.0   133     1.7   971.8    0.00 
 179    7:10   0.35   78.0    32    0.2   172     1.3   971.9    0.00 
 179    7:20   0.39   80.4    29    0.3   148     2.1   971.9    0.00 
 179    7:30   0.42   82.1    28    0.2   131     1.5   971.9    0.00 
 179    7:40   0.45   84.1    26    2.4   141     5.5   972.0    0.00 
 179    7:50   0.48   82.8    30    4.3   127     6.4   972.1    0.00 
 179    8:00   0.51   83.3    31    3.4   119     6.1   972.0    0.00 
 179    8:10   0.55   84.2    31    4.5   129     6.6   972.0    0.00 
 179    8:20   0.57   84.7    32    3.9   125     7.1   971.9    0.00 
 179    8:30   0.60   86.1    30    3.8   129     5.8   971.8    0.00 
 179    8:40   0.63   87.9    29    4.3   126     7.4   971.7    0.00 
 179    8:50   0.66   88.1    28    5.6   120     8.2   971.7    0.00 
 179    9:00   0.69   89.5    26    5.5   152     9.8   971.6    0.00 
 179    9:10   0.71   89.8    25    3.7   182     9.1   971.5    0.00 
 179    9:20   0.74   91.2    22    5.4   175     9.1   971.5    0.00 
 179    9:30   0.77   91.9    19    6.1   175     9.9   971.6    0.00 
 179    9:40   0.79   92.3    18    5.0   186     8.8   971.5    0.00 
 179    9:50   0.81   92.9    18    6.1   179     9.7   971.4    0.00 
 179   10:00   0.83   93.1    17    5.7   194     9.6   971.3    0.00 
 179   10:10   0.85   93.8    15    6.1   201    10.6   971.3    0.00 
 179   10:20   0.87   94.6    15    5.4   217    11.2   971.2    0.00 
 179   10:30   0.88   94.7    16    6.6   203    11.4   971.1    0.00 
 179   10:40   0.89   95.6    17    7.1   192    12.5   971.1    0.00 
 179   10:50   0.90   96.7    17    6.6   195     9.9   971.1    0.00 
 179   11:00   0.91   97.2    17    7.6   212    14.5   971.1    0.00 
 179   11:10   0.92   97.3    18    6.8   219    12.6   971.0    0.00 
 179   11:20   0.93   98.0    18    7.3   217    12.7   970.9    0.00 
 179   11:30   0.91   99.8    17    6.8   204    12.8   970.8    0.00 
 179   11:40   0.94   99.9    17    6.5   204    12.6   970.7    0.00 
 179   11:50   0.94   99.5    18    8.3   210    13.6   970.7    0.00 
 179   12:00   0.94   99.9    18    7.5   213    15.0   970.6    0.00 
 179   12:10   0.94  100.7    18    7.6   213    13.2   970.6    0.00 
 179   12:20   0.94  102.0    16    4.3   271    12.7   970.6    0.00 
 179   12:30   0.94  101.3    17    7.8   249    13.4   970.5    0.00 
 179   12:40   0.94  101.6    17    7.4   249    13.2   970.4    0.00 
 179   12:50   0.93  101.8    17    7.7   245    15.4   970.3    0.00 
 179   13:00   0.92  101.6    16    6.6   254    13.3   970.3    0.00 
 179   13:10   0.91  102.4    16    8.5   247    15.3   970.3    0.00 
 179   13:20   0.90  100.8    17   10.2   243    15.9   970.4    0.00 
 179   13:30   0.89  100.8    18   11.0   218    19.7   970.3    0.00 
 179   13:40   0.87  100.0    18   11.3   217    17.0   970.3    0.00 
 179   13:50   0.86   98.6    19   12.3   204    19.7   970.3    0.00 
 179   14:00   0.84   98.4    19   12.1   214    18.9   970.2    0.00 
 179   14:10   0.82   98.2    19   12.1   215    18.7   970.3    0.00 
 179   14:20   0.81   98.5    18   11.2   216    18.6   970.2    0.00 
 179   14:30   0.79   99.4    18    9.8   204    17.7   970.1    0.00 
 179   14:40   0.77   98.5    18   11.3   213    17.9   970.1    0.00 
 179   14:50   0.74   98.7    18   11.0   243    19.3   970.1    0.00 
 179   15:00   0.72   98.5    18    9.7   241    17.8   970.2    0.00 
 179   15:10   0.69   98.5    18    8.3   236    14.1   970.1    0.00 
 179   15:20   0.67   98.2    18   10.2   242    15.7   970.1    0.00 
 179   15:30   0.64   97.5    18   10.2   222    16.4   970.2    0.00 
 179   15:40   0.61   97.4    18    9.6   241    15.5   970.2    0.00 
 179   15:50   0.58   97.4    17    8.7   228    14.9   970.3    0.00 
 179   16:00   0.55   96.9    17    9.3   226    14.9   970.3    0.00 
 179   16:10   0.52   96.9    17    7.8   228    14.8   970.3    0.00 
 179   16:20   0.49   96.5    17    8.5   217    14.2   970.3    0.00 
 179   16:30   0.46   95.9    17    9.3   219    14.3   970.3    0.00 
 179   16:40   0.43   95.6    17    7.3   204    13.2   970.3    0.00 
 179   16:50   0.39   95.8    17    6.9   218    13.9   970.3    0.00 
 179   17:00   0.36   94.9    17    7.4   216    11.6   970.3    0.00 
 179   17:10   0.33   94.8    16    6.2   200    10.4   970.4    0.00 
 179   17:20   0.29   94.4    17    4.8   206    10.4   970.5    0.00 
 179   17:30   0.26   94.4    17    4.4   199     7.4   970.6    0.00 
 179   17:40   0.23   94.2    18    5.0   167     7.1   970.6    0.00 
 179   17:50   0.20   93.7    18    3.9   176     6.9   970.7    0.00 
 179   18:00   0.17   93.8    19    3.6   170     5.8   970.8    0.00 
 179   18:10   0.14   93.5    19    3.1   164     5.0   970.9    0.00 
 179   18:20   0.11   92.6    20    4.0   143     6.1   971.0    0.00 
 179   18:30   0.09   91.7    20    4.0   154     5.8   971.2    0.00 
 179   18:40   0.07   91.1    20    2.4   135     3.8   971.2    0.00 
 179   18:50   0.04   90.5    20    1.2   145     3.1   971.2    0.00 
 179   19:00   0.02   89.9    20    1.6   113     2.6   971.2    0.00 
 179   19:10   0.01   87.9    22    0.5   176     1.7   971.3    0.00 
 179   19:20   0.00   86.8    22    0.0     0     0.0   971.3    0.00 
 179   19:30   0.00   84.7    24    2.8     4     3.9   971.4    0.00 
 179   19:40   0.00   82.8    25    1.8   327     3.8   971.4    0.00 
 179   19:50   0.00   81.7    26    2.8   342     4.7   971.5    0.00 
 179   20:00   0.00   80.3    28    2.5   340     5.1   971.5    0.00 
 179   20:10   0.00   79.5    28    0.3   299     1.5   971.5    0.00 
 179   20:20   0.00   78.8    29    2.2   341     3.7   971.6    0.00 
 179   20:30   0.00   77.6    31    2.8   357     5.0   971.6    0.00 
 179   20:40   0.00   77.2    31    2.0   341     3.4   971.6    0.00 
 179   20:50   0.00   77.3    31    1.6   335     3.2   971.6    0.00 
 179   21:00   0.00   76.2    31    0.8   262     1.9   971.6    0.00 
 179   21:10   0.00   75.9    32    0.6   218     1.9   971.6    0.00 
 179   21:20   0.00   75.4    33    0.4   309     1.8   971.6    0.00 
 179   21:30   0.00   75.0    34    0.5   357     1.8   971.7    0.00 
 179   21:40   0.00   74.6    34    1.0   316     2.6   971.5    0.00 

Return to Sedgwick Reserve graphs page.


Western Regional Climate Center,wrcc@dri.edu